Terminal Aerodrome Forecast
Issued by NWS

Home | Current Version | Previous Version | Text Only | Print | Product List | Glossary On
Versions: 1 2 3 4 5 6 7 8 9 10 11 12 13 14 15 16 17 18 19 20 21 22 23 24 25 26 27 28 29 30 31 32 33 34
480
FTUS41 KRLX 292338
TAFCKB
TAF
KCKB 292338Z 3000/3024 00000KT P6SM SCT050
     FM300500 00000KT 4SM HZ BKN050
     FM300700 00000KT 3SM SHRA BKN025
     FM301000 00000KT 1SM BR BKN005
     FM301300 00000KT 2SM BR BKN015
     FM301400 VRB03KT 4SM BR BKN025
     FM301500 VRB03KT P6SM BKN035
     FM301700 VRB03KT P6SM VCTS BKN035CB=

USA.gov is the U.S. government's official web portal to all federal, state and local government web resources and services.